Home   Weather   's-Hertogenbosch   Past weeks
Flag for Netherlands

Past Weather in 's-Hertogenbosch, Netherlands — Yesterday and Last 2 Weeks

Currently: 75 °F. Partly sunny. (Weather station: Volkel, Netherlands). See more current weather

Past Weather in 's-Hertogenbosch — Graph

°F

's-Hertogenbosch Temperature Yesterday

Maximum temperature yesterday: 72 °F (at 2:55 pm)
Minimum temperature yesterday: 57 °F (at 12:55 am)
Average temperature yesterday: 64 °F

High & Low Weather Summary for the Past Weeks

 TemperatureHumidityPressure
High88 °F (Jul 20, 2:25 pm)100% (Jul 11, 12:25 am)30.21 "Hg (Jul 11, 12:25 am)
Low50 °F (Jul 14, 12:55 am)42% (Jul 15, 2:55 pm)29.68 "Hg (Jul 21, 3:01 am)
Average66 °F79%29.96 "Hg
* Reported Jul 10 1:25 pm — Jul 25 1:25 pm, 's-Hertogenbosch. Weather by CustomWeather, © 2024

Note: Actual official high and low records may vary slightly from our data, if they occured in-between our weather recording intervals... More about our weather records

's-Hertogenbosch Weather History for the Previous 24 Hours

Scroll right to see more
 ConditionsComfort  
Time TempWeatherWind HumidityBarometerVisibility
1:25 pm
Thu, Jul 25
75 °FPartly sunny.10 mph54%29.92 "HgN/A
12:55 pm73 °FScattered clouds.10 mph57%29.92 "HgN/A
12:25 pm73 °FMostly cloudy.10 mph61%29.95 "HgN/A
11:55 am73 °FMore clouds than sun.9 mph61%29.95 "HgN/A
11:36 am70 °FCloudy.9 mph64%29.95 "HgN/A
10:25 am68 °FBroken clouds.7 mph73%29.98 "HgN/A
9:55 am66 °FLight rain. More clouds than sun.6 mph73%29.98 "HgN/A
9:25 am64 °FBroken clouds.6 mph83%29.98 "HgN/A
8:55 am63 °FMostly cloudy.6 mph83%30.01 "HgN/A
8:25 am63 °FMostly cloudy.6 mph83%30.01 "HgN/A
7:55 am61 °FMostly cloudy.3 mph83%30.01 "HgN/A
7:25 am59 °FCloudy.2 mph88%30.01 "HgN/A
6:55 am59 °FOvercast.2 mph82%30.01 "HgN/A
6:25 am59 °FMore clouds than sun.3 mph82%30.01 "HgN/A
5:55 am59 °FOvercast.2 mph82%30.01 "HgN/A
5:25 am57 °FOvercast.3 mph88%30.04 "HgN/A
4:55 am57 °FOvercast.3 mph88%30.04 "HgN/A
4:25 am57 °FOvercast.3 mph88%30.04 "HgN/A
3:55 am57 °FOvercast.5 mph88%30.04 "HgN/A
3:25 am57 °FOvercast.2 mph88%30.04 "HgN/A
2:55 am55 °FOvercast.2 mph94%30.07 "HgN/A
2:25 am54 °FClear.2 mph100%30.07 "HgN/A
1:55 am54 °FClear.1 mph100%30.07 "HgN/A
1:25 am54 °FClear.No wind100%30.07 "HgN/A
12:55 am55 °FOvercast.No wind94%30.07 "HgN/A
12:25 am55 °FPassing clouds.1 mph94%30.07 "HgN/A
11:55 pm
Wed, Jul 24
57 °FClear.No wind88%30.09 "HgN/A
11:25 pm57 °FPassing clouds.1 mph88%30.09 "HgN/A
10:55 pm57 °FPassing clouds.1 mph88%30.09 "HgN/A
10:25 pm59 °FHigh level clouds.2 mph82%30.09 "HgN/A
10:06 pm59 °FClear.1 mph88%30.09 "HgN/A
9:25 pm63 °FPartly sunny.2 mph73%30.09 "HgN/A
8:55 pm64 °FClear.2 mph68%30.09 "HgN/A
8:25 pm70 °FClear.3 mph46%30.09 "HgN/A
7:55 pm70 °FClear.5 mph46%30.09 "HgN/A
7:25 pm72 °FClear.5 mph47%30.09 "HgN/A
6:55 pm72 °FClear.7 mph50%30.09 "HgN/A
6:25 pm72 °FClear.5 mph47%30.09 "HgN/A
5:55 pm72 °FClear.6 mph47%30.09 "HgN/A
5:25 pm72 °FPassing clouds.5 mph47%30.12 "HgN/A
4:55 pm72 °FPassing clouds.6 mph50%30.12 "HgN/A
4:25 pm70 °FClear.6 mph53%30.12 "HgN/A
3:55 pm70 °FClear.6 mph53%30.12 "HgN/A
2:55 pm72 °FBroken clouds.5 mph53%30.15 "HgN/A
2:25 pm70 °FOvercast.5 mph57%30.15 "HgN/A
Weather by CustomWeather, © 2024

See weather overview